馬公航空站 - ATIS

METAR RCQC 230030Z 18010KT 9999 FEW012 BKN200 28/24 Q1009 NOSIG RMK A2982=

站台狀態:Online
最後更新:2018-06-23 08:45:01